createdAt,value
2018-11-28T00:00:39.766Z,4.40
2018-11-28T00:03:08.512Z,4.50
2018-11-28T00:05:36.846Z,4.40
2018-11-28T00:08:05.197Z,4.40
2018-11-28T00:10:33.528Z,4.40
2018-11-28T00:13:01.878Z,4.40
2018-11-28T00:15:30.226Z,4.40
2018-11-28T00:17:58.586Z,4.40
2018-11-28T00:20:26.976Z,4.40
2018-11-28T00:22:55.314Z,4.40
2018-11-28T00:25:23.638Z,4.40
2018-11-28T00:27:52.056Z,4.40
2018-11-28T00:30:22.151Z,4.40
2018-11-28T00:32:50.609Z,4.30
2018-11-28T00:35:19.965Z,4.30
2018-11-28T00:37:48.360Z,4.30
2018-11-28T00:40:17.952Z,4.30
2018-11-28T00:42:46.298Z,4.30
2018-11-28T00:45:15.600Z,4.30
2018-11-28T00:47:43.974Z,4.30
2018-11-28T00:50:14.636Z,4.30
2018-11-28T00:52:42.975Z,4.20
2018-11-28T00:55:13.252Z,4.30
2018-11-28T00:57:41.729Z,4.30
2018-11-28T01:00:14.471Z,4.30
2018-11-28T01:02:42.903Z,4.20
2018-11-28T01:05:11.993Z,4.30
2018-11-28T01:07:40.551Z,4.30
2018-11-28T01:10:10.503Z,4.30
2018-11-28T01:12:40.144Z,4.30
2018-11-28T01:15:09.835Z,4.20
2018-11-28T01:17:38.211Z,4.20
2018-11-28T01:20:08.817Z,4.20
2018-11-28T01:22:37.166Z,4.20
2018-11-28T01:25:07.524Z,4.10
2018-11-28T01:27:35.855Z,4.10
2018-11-28T01:30:08.235Z,4.10
2018-11-28T01:32:36.578Z,4.10
2018-11-28T01:35:06.154Z,4.20
2018-11-28T01:37:34.526Z,4.20
2018-11-28T01:40:03.313Z,4.10
2018-11-28T01:42:31.608Z,4.10
2018-11-28T01:44:59.962Z,4.10
2018-11-28T01:47:28.311Z,4.10
2018-11-28T01:49:56.630Z,4.10
2018-11-28T01:52:25.018Z,4.10
2018-11-28T01:54:53.353Z,4.10
2018-11-28T01:57:21.711Z,4.10
2018-11-28T01:59:50.039Z,4.10
2018-11-28T02:02:18.372Z,4.10
2018-11-28T02:04:46.719Z,4.10
2018-11-28T02:07:15.037Z,4.10
2018-11-28T02:09:43.353Z,4.10
2018-11-28T02:12:11.701Z,4.00
2018-11-28T02:14:40.039Z,4.10
2018-11-28T02:17:08.409Z,4.10
2018-11-28T02:19:36.744Z,4.10
2018-11-28T02:22:05.161Z,4.10
2018-11-28T02:24:33.522Z,4.10
2018-11-28T02:27:01.857Z,4.10
2018-11-28T02:29:30.253Z,4.10
2018-11-28T02:31:58.583Z,4.10
2018-11-28T02:34:26.912Z,4.00
2018-11-28T02:36:55.282Z,4.00
2018-11-28T02:39:23.614Z,4.00
2018-11-28T02:41:51.968Z,4.00
2018-11-28T02:44:20.383Z,4.00
2018-11-28T02:46:48.715Z,4.00
2018-11-28T02:49:17.052Z,3.90
2018-11-28T02:51:45.433Z,3.90
2018-11-28T02:54:13.771Z,3.90
2018-11-28T02:56:42.097Z,3.90
2018-11-28T02:59:10.432Z,3.90
2018-11-28T03:01:38.791Z,3.90
2018-11-28T03:04:07.124Z,3.90
2018-11-28T03:06:35.783Z,4.00
2018-11-28T03:09:05.280Z,4.00
2018-11-28T03:11:33.646Z,4.00
2018-11-28T03:14:01.992Z,4.00
2018-11-28T03:16:30.304Z,4.00
2018-11-28T03:18:58.641Z,4.00
2018-11-28T03:21:26.955Z,4.00
2018-11-28T03:23:55.285Z,4.10
2018-11-28T03:26:23.609Z,4.10
2018-11-28T03:28:51.989Z,4.10
2018-11-28T03:31:20.362Z,4.10
2018-11-28T03:33:48.689Z,4.10
2018-11-28T03:36:17.038Z,4.10
2018-11-28T03:38:45.407Z,4.20
2018-11-28T03:41:13.723Z,4.10
2018-11-28T03:43:42.093Z,4.10
2018-11-28T03:46:10.474Z,4.10
2018-11-28T03:48:38.841Z,4.20
2018-11-28T03:51:07.218Z,4.10
2018-11-28T03:53:35.541Z,4.10
2018-11-28T03:56:03.949Z,4.10
2018-11-28T03:58:32.257Z,4.10
2018-11-28T04:01:00.591Z,4.10
2018-11-28T04:03:28.932Z,4.10
2018-11-28T04:05:57.280Z,4.10
2018-11-28T04:08:25.599Z,4.00
2018-11-28T04:10:53.932Z,4.10
2018-11-28T04:13:22.259Z,4.10
2018-11-28T04:15:50.603Z,4.10
2018-11-28T04:18:18.988Z,4.00
2018-11-28T04:20:47.359Z,4.00
2018-11-28T04:23:15.694Z,4.00
2018-11-28T04:25:44.043Z,4.00
2018-11-28T04:28:12.374Z,4.00
2018-11-28T04:30:40.706Z,4.00
2018-11-28T04:33:09.047Z,4.00
2018-11-28T04:35:37.396Z,4.00
2018-11-28T04:38:05.875Z,4.00
2018-11-28T04:40:34.260Z,4.00
2018-11-28T04:43:02.610Z,4.00
2018-11-28T04:45:30.988Z,4.00
2018-11-28T04:47:59.340Z,4.00
2018-11-28T04:50:27.661Z,4.00
2018-11-28T04:52:56.021Z,4.10
2018-11-28T04:55:24.408Z,4.10
2018-11-28T04:57:52.743Z,4.10
2018-11-28T05:00:24.761Z,4.10
2018-11-28T05:02:54.140Z,4.10
2018-11-28T05:05:22.480Z,4.00
2018-11-28T05:07:51.814Z,4.10
2018-11-28T05:10:25.202Z,4.10
2018-11-28T05:12:54.138Z,4.00
2018-11-28T05:15:23.527Z,4.10
2018-11-28T05:17:53.398Z,4.10
2018-11-28T05:20:29.780Z,4.10
2018-11-28T05:22:58.153Z,4.10
2018-11-28T05:25:28.118Z,4.10
2018-11-28T05:27:58.467Z,4.10
2018-11-28T05:30:28.851Z,4.10
2018-11-28T05:32:57.157Z,4.10
2018-11-28T05:35:26.833Z,4.10
2018-11-28T05:37:55.545Z,4.10
2018-11-28T05:40:24.747Z,4.10
2018-11-28T05:42:53.208Z,4.10
2018-11-28T05:45:21.562Z,4.10
2018-11-28T05:47:49.937Z,4.10
2018-11-28T05:50:19.455Z,4.10
2018-11-28T05:52:47.880Z,4.10
2018-11-28T05:55:17.078Z,4.20
2018-11-28T05:57:45.426Z,4.20
2018-11-28T06:00:43.663Z,4.20
2018-11-28T06:03:13.467Z,4.20
2018-11-28T06:05:42.517Z,4.20
2018-11-28T06:08:11.035Z,4.20
2018-11-28T06:10:39.430Z,4.20
2018-11-28T06:13:07.751Z,4.20
2018-11-28T06:15:36.086Z,4.20
2018-11-28T06:18:04.499Z,4.20
2018-11-28T06:20:32.871Z,4.20
2018-11-28T06:23:01.211Z,4.20
2018-11-28T06:25:29.540Z,4.20
2018-11-28T06:27:57.932Z,4.20
2018-11-28T06:30:26.291Z,4.20
2018-11-28T06:32:54.647Z,4.20
2018-11-28T06:35:23.015Z,4.20
2018-11-28T06:37:51.368Z,4.20
2018-11-28T06:40:23.805Z,4.20
2018-11-28T06:42:48.508Z,4.20
2018-11-28T06:45:20.987Z,4.20
2018-11-28T06:47:49.376Z,4.20
2018-11-28T06:50:18.558Z,4.20
2018-11-28T06:52:48.159Z,4.20
2018-11-28T06:55:17.454Z,4.20
2018-11-28T06:57:45.846Z,4.20
2018-11-28T07:00:17.100Z,4.20
2018-11-28T07:02:45.827Z,4.20
2018-11-28T07:05:14.276Z,4.20
2018-11-28T07:07:42.635Z,4.20
2018-11-28T07:10:13.196Z,4.30
2018-11-28T07:12:41.548Z,4.30
2018-11-28T07:15:13.100Z,4.30
2018-11-28T07:17:41.855Z,4.20
2018-11-28T07:20:12.318Z,4.30
2018-11-28T07:22:40.726Z,4.30
2018-11-28T07:25:13.818Z,4.30
2018-11-28T07:27:45.101Z,4.40
2018-11-28T07:30:14.780Z,4.40
2018-11-28T07:32:43.159Z,4.50
2018-11-28T07:35:12.233Z,4.50
2018-11-28T07:37:40.614Z,4.60
2018-11-28T07:40:18.394Z,4.60
2018-11-28T07:42:55.680Z,4.70
2018-11-28T07:45:24.048Z,4.80
2018-11-28T07:47:52.376Z,4.80
2018-11-28T07:50:20.724Z,4.80
2018-11-28T07:52:49.026Z,4.80
2018-11-28T07:55:17.400Z,4.90
2018-11-28T07:57:45.761Z,4.90
2018-11-28T08:00:15.097Z,4.90
2018-11-28T08:02:44.178Z,4.90
2018-11-28T08:05:12.772Z,5.00
2018-11-28T08:07:41.192Z,5.00
2018-11-28T08:10:20.326Z,5.00
2018-11-28T08:12:49.634Z,5.00
2018-11-28T08:15:17.975Z,5.10
2018-11-28T08:17:46.316Z,5.10
2018-11-28T08:20:14.694Z,5.10
2018-11-28T08:22:43.025Z,5.10
2018-11-28T08:25:13.405Z,5.10
2018-11-28T08:27:42.646Z,5.10
2018-11-28T08:30:14.557Z,5.20
2018-11-28T08:32:42.904Z,5.20
2018-11-28T08:35:12.040Z,5.20
2018-11-28T08:37:40.411Z,5.20
2018-11-28T08:40:10.567Z,5.20
2018-11-28T08:42:38.952Z,5.20
2018-11-28T08:45:09.304Z,5.20
2018-11-28T08:47:37.670Z,5.20
2018-11-28T08:50:09.474Z,5.20
2018-11-28T08:52:37.834Z,5.20
2018-11-28T08:55:07.316Z,5.20
2018-11-28T08:57:35.685Z,5.20
2018-11-28T09:00:06.659Z,5.20
2018-11-28T09:02:34.983Z,5.30
2018-11-28T09:05:03.427Z,5.30
2018-11-28T09:07:31.760Z,5.40
2018-11-28T09:10:00.086Z,5.40
2018-11-28T09:12:28.434Z,5.40
2018-11-28T09:14:56.794Z,5.50
2018-11-28T09:17:25.170Z,5.50
2018-11-28T09:19:53.504Z,5.60
2018-11-28T09:22:21.844Z,5.60
2018-11-28T09:24:50.166Z,5.60
2018-11-28T09:27:18.681Z,5.60
2018-11-28T09:29:47.018Z,5.70
2018-11-28T09:32:15.378Z,5.70
2018-11-28T09:34:43.696Z,5.70
2018-11-28T09:37:12.042Z,5.70
2018-11-28T09:39:40.413Z,5.70
2018-11-28T09:42:08.736Z,5.70
2018-11-28T09:44:37.044Z,5.70
2018-11-28T09:47:05.677Z,5.70
2018-11-28T09:49:33.996Z,5.70
2018-11-28T09:52:02.344Z,5.80
2018-11-28T09:54:30.674Z,5.80
2018-11-28T09:56:59.014Z,5.60
2018-11-28T09:59:27.329Z,5.60
2018-11-28T10:01:55.667Z,5.70
2018-11-28T10:04:23.992Z,5.70
2018-11-28T10:06:52.366Z,5.70
2018-11-28T10:09:20.668Z,5.70
2018-11-28T10:11:49.044Z,5.70
2018-11-28T10:14:17.398Z,5.80
2018-11-28T10:16:46.280Z,5.80
2018-11-28T10:19:14.073Z,5.80
2018-11-28T10:21:42.394Z,5.80
2018-11-28T10:24:10.782Z,5.80
2018-11-28T10:26:39.160Z,5.70
2018-11-28T10:29:07.492Z,5.80
2018-11-28T10:31:35.856Z,5.80
2018-11-28T10:34:04.267Z,5.80
2018-11-28T10:36:32.617Z,5.70
2018-11-28T10:39:00.967Z,5.80
2018-11-28T10:41:29.377Z,5.80
2018-11-28T10:43:57.769Z,5.90
2018-11-28T10:46:26.122Z,5.90
2018-11-28T10:48:54.484Z,5.90
2018-11-28T10:51:22.855Z,6.00
2018-11-28T10:53:51.189Z,6.00
2018-11-28T10:56:19.519Z,5.90
2018-11-28T10:58:47.826Z,6.00
2018-11-28T11:01:21.420Z,6.00
2018-11-28T11:03:55.426Z,6.00
2018-11-28T11:06:29.431Z,6.00
2018-11-28T11:09:02.899Z,6.10
2018-11-28T11:11:36.632Z,6.10
2018-11-28T11:14:10.320Z,6.10
2018-11-28T11:16:38.761Z,6.20
2018-11-28T11:19:07.090Z,6.20
2018-11-28T11:21:35.500Z,6.30
2018-11-28T11:24:03.910Z,6.30
2018-11-28T11:26:32.363Z,6.40
2018-11-28T11:29:00.716Z,6.40
2018-11-28T11:31:29.084Z,6.40
2018-11-28T11:33:57.448Z,6.50
2018-11-28T11:36:25.756Z,6.50
2018-11-28T11:38:54.092Z,6.50
2018-11-28T11:41:22.464Z,6.60
2018-11-28T11:43:50.835Z,6.60
2018-11-28T11:46:19.172Z,6.70
2018-11-28T11:48:47.509Z,6.60
2018-11-28T11:51:17.261Z,6.60
2018-11-28T11:53:44.207Z,6.60
2018-11-28T11:56:12.619Z,6.60
2018-11-28T11:58:40.946Z,6.70
2018-11-28T12:01:09.403Z,6.70
2018-11-28T12:03:38.988Z,6.70
2018-11-28T12:06:06.256Z,6.70
2018-11-28T12:08:34.624Z,6.80
2018-11-28T12:11:02.997Z,6.80
2018-11-28T12:13:31.392Z,6.80
2018-11-28T12:15:59.701Z,6.80
2018-11-28T12:18:28.071Z,6.90
2018-11-28T12:20:59.148Z,6.80
2018-11-28T12:23:27.461Z,6.80
2018-11-28T12:25:55.807Z,6.80
2018-11-28T12:28:24.184Z,6.70
2018-11-28T12:30:52.618Z,6.70
2018-11-28T12:33:21.072Z,6.80
2018-11-28T12:35:49.384Z,6.80
2018-11-28T12:38:17.728Z,6.90
2018-11-28T12:40:46.072Z,6.90
2018-11-28T12:43:14.440Z,6.90
2018-11-28T12:45:44.136Z,6.90
2018-11-28T12:48:12.486Z,6.90
2018-11-28T12:50:40.823Z,6.90
2018-11-28T12:53:11.490Z,6.90
2018-11-28T12:55:39.876Z,6.90
2018-11-28T12:58:11.859Z,6.90
2018-11-28T13:00:40.184Z,6.90
2018-11-28T13:03:09.727Z,6.90
2018-11-28T13:05:38.056Z,7.00
2018-11-28T13:08:06.778Z,7.00
2018-11-28T13:10:36.655Z,7.00
2018-11-28T13:13:06.352Z,7.00
2018-11-28T13:15:35.108Z,7.00
2018-11-28T13:18:03.422Z,6.90
2018-11-28T13:20:31.787Z,6.80
2018-11-28T13:23:00.225Z,6.70
2018-11-28T13:25:28.646Z,6.70
2018-11-28T13:27:57.009Z,6.70
2018-11-28T13:30:26.065Z,6.70
2018-11-28T13:32:55.397Z,6.70
2018-11-28T13:35:24.832Z,6.70
2018-11-28T13:37:55.176Z,6.60
2018-11-28T13:40:23.529Z,6.60
2018-11-28T13:42:52.002Z,6.60
2018-11-28T13:45:22.547Z,6.60
2018-11-28T13:47:51.846Z,6.60
2018-11-28T13:50:20.215Z,6.60
2018-11-28T13:52:49.127Z,6.50
2018-11-28T13:55:43.352Z,6.50
2018-11-28T13:57:56.220Z,6.50
2018-11-28T14:00:24.600Z,6.40
2018-11-28T14:02:52.952Z,6.40
2018-11-28T14:05:21.258Z,6.40
2018-11-28T14:07:49.764Z,6.40
2018-11-28T14:10:18.043Z,6.40
2018-11-28T14:12:46.381Z,6.40
2018-11-28T14:15:17.456Z,6.40
2018-11-28T14:17:50.218Z,6.40
2018-11-28T14:20:18.616Z,6.40
2018-11-28T14:22:47.009Z,6.40
2018-11-28T14:25:15.395Z,6.30
2018-11-28T14:27:44.173Z,6.30
2018-11-28T14:30:15.652Z,6.30
2018-11-28T14:32:44.313Z,6.30
2018-11-28T14:35:12.717Z,6.30
2018-11-28T14:37:41.103Z,6.30
2018-11-28T14:40:12.592Z,6.20
2018-11-28T14:42:40.976Z,6.20
2018-11-28T14:45:13.304Z,6.20
2018-11-28T14:47:41.714Z,6.20
2018-11-28T14:50:15.348Z,6.10
2018-11-28T14:52:44.005Z,6.20
2018-11-28T14:55:16.616Z,6.10
2018-11-28T14:57:44.975Z,6.10
2018-11-28T15:00:23.804Z,6.10
2018-11-28T15:02:55.473Z,6.10
2018-11-28T15:05:35.165Z,6.10
2018-11-28T15:08:06.508Z,6.10
2018-11-28T15:10:56.723Z,6.00
2018-11-28T15:13:25.059Z,6.00
2018-11-28T15:15:53.452Z,5.90
2018-11-28T15:18:21.783Z,6.00
2018-11-28T15:20:50.091Z,6.00
2018-11-28T15:23:18.505Z,6.00
2018-11-28T15:25:46.886Z,5.90
2018-11-28T15:28:15.266Z,5.90
2018-11-28T15:30:43.612Z,5.90
2018-11-28T15:33:11.974Z,5.80
2018-11-28T15:35:40.613Z,5.80
2018-11-28T15:38:09.211Z,5.90
2018-11-28T15:40:37.573Z,5.80
2018-11-28T15:43:06.081Z,5.80
2018-11-28T15:45:34.415Z,5.80
2018-11-28T15:48:02.831Z,5.80
2018-11-28T15:50:31.200Z,5.80
2018-11-28T15:52:59.577Z,5.80
2018-11-28T15:55:27.962Z,5.80
2018-11-28T15:57:56.331Z,5.70
2018-11-28T16:00:25.244Z,5.70
2018-11-28T16:02:54.197Z,5.80
2018-11-28T16:05:22.553Z,5.80
2018-11-28T16:07:50.883Z,5.70
2018-11-28T16:10:24.598Z,5.70
2018-11-28T16:12:52.955Z,5.70
2018-11-28T16:15:22.776Z,5.70
2018-11-28T16:17:51.148Z,5.70
2018-11-28T16:20:19.536Z,5.70
2018-11-28T16:22:47.913Z,5.70
2018-11-28T16:25:16.285Z,5.70
2018-11-28T16:27:44.680Z,5.70
2018-11-28T16:30:14.867Z,5.60
2018-11-28T16:32:47.865Z,5.60
2018-11-28T16:35:17.835Z,5.60
2018-11-28T16:37:46.178Z,5.70
2018-11-28T16:40:16.052Z,5.60
2018-11-28T16:42:44.535Z,5.60
2018-11-28T16:45:27.383Z,5.70
2018-11-28T16:47:55.757Z,5.70
2018-11-28T16:50:24.178Z,5.70
2018-11-28T16:52:52.558Z,5.80
2018-11-28T16:55:20.915Z,5.80
2018-11-28T16:57:52.422Z,5.80
2018-11-28T17:00:23.105Z,5.80
2018-11-28T17:02:52.149Z,5.80
2018-11-28T17:05:21.605Z,5.80
2018-11-28T17:07:50.231Z,5.80
2018-11-28T17:10:22.962Z,5.80
2018-11-28T17:12:51.722Z,5.80
2018-11-28T17:15:20.432Z,5.80
2018-11-28T17:17:48.833Z,5.80
2018-11-28T17:20:19.120Z,5.80
2018-11-28T17:22:47.896Z,5.70
2018-11-28T17:25:21.480Z,5.70
2018-11-28T17:27:49.867Z,5.70
2018-11-28T17:30:20.698Z,5.70
2018-11-28T17:32:49.078Z,5.70
2018-11-28T17:35:17.409Z,5.70
2018-11-28T17:37:45.951Z,5.70
2018-11-28T17:40:18.458Z,5.70
2018-11-28T17:42:47.997Z,5.70
2018-11-28T17:45:17.208Z,5.70
2018-11-28T17:47:45.578Z,5.70
2018-11-28T17:50:22.105Z,5.70
2018-11-28T17:53:00.891Z,5.70
2018-11-28T17:55:31.043Z,5.70
2018-11-28T17:57:59.380Z,5.70
2018-11-28T18:00:27.779Z,5.80
2018-11-28T18:02:56.156Z,5.80
2018-11-28T18:05:24.618Z,5.80
2018-11-28T18:07:52.975Z,5.80
2018-11-28T18:10:22.130Z,5.80
2018-11-28T18:13:28.982Z,5.80
2018-11-28T18:15:57.325Z,5.80
2018-11-28T18:18:26.202Z,5.80
2018-11-28T18:20:54.591Z,5.80
2018-11-28T18:23:22.930Z,5.80
2018-11-28T18:25:51.393Z,5.80
2018-11-28T18:28:19.777Z,5.70
2018-11-28T18:30:48.146Z,5.70
2018-11-28T18:33:16.543Z,5.70
2018-11-28T18:35:44.946Z,5.70
2018-11-28T18:38:13.309Z,5.70
2018-11-28T18:40:41.707Z,5.60
2018-11-28T18:43:10.652Z,5.60
2018-11-28T18:45:44.666Z,5.60
2018-11-28T18:48:13.135Z,5.60
2018-11-28T18:50:41.499Z,5.60
2018-11-28T18:53:09.881Z,5.60
2018-11-28T18:55:38.234Z,5.60
2018-11-28T18:58:08.227Z,5.70
2018-11-28T19:00:36.586Z,5.70
2018-11-28T19:03:05.462Z,5.70
2018-11-28T19:05:33.874Z,5.70
2018-11-28T19:08:02.511Z,5.70
2018-11-28T19:10:30.843Z,5.70
2018-11-28T19:12:59.233Z,5.70
2018-11-28T19:15:28.837Z,5.70
2018-11-28T19:17:58.039Z,5.70
2018-11-28T19:20:26.414Z,5.60
2018-11-28T19:22:55.778Z,5.60
2018-11-28T19:25:25.094Z,5.60
2018-11-28T19:27:53.476Z,5.60
2018-11-28T19:30:36.624Z,5.60
2018-11-28T19:33:06.937Z,5.60
2018-11-28T19:35:36.108Z,5.60
2018-11-28T19:38:07.255Z,5.60
2018-11-28T19:40:44.188Z,5.70
2018-11-28T19:43:12.636Z,5.70
2018-11-28T19:45:41.287Z,5.70
2018-11-28T19:48:09.717Z,5.70
2018-11-28T19:50:38.073Z,5.70
2018-11-28T19:53:07.625Z,5.70
2018-11-28T19:55:36.262Z,5.70
2018-11-28T19:58:05.261Z,5.70
2018-11-28T20:00:33.621Z,5.70
2018-11-28T20:03:01.986Z,5.70
2018-11-28T20:05:30.367Z,5.70
2018-11-28T20:07:58.727Z,5.70
2018-11-28T20:10:33.542Z,5.70
2018-11-28T20:13:02.523Z,5.70
2018-11-28T20:15:32.076Z,5.70
2018-11-28T20:18:00.490Z,5.70
2018-11-28T20:20:28.983Z,5.70
2018-11-28T20:22:57.444Z,5.70
2018-11-28T20:25:25.920Z,5.80
2018-11-28T20:27:56.880Z,5.70
2018-11-28T20:30:27.471Z,5.70
2018-11-28T20:35:30.538Z,5.80
2018-11-28T20:38:00.581Z,5.80
2018-11-28T20:40:29.047Z,5.80
2018-11-28T20:42:57.419Z,5.80
2018-11-28T20:45:25.849Z,5.80
2018-11-28T20:47:54.357Z,5.80
2018-11-28T20:50:24.431Z,5.80
2018-11-28T20:52:55.289Z,5.80
2018-11-28T20:55:23.391Z,5.80
2018-11-28T20:57:51.764Z,5.80
2018-11-28T21:00:21.642Z,5.80
2018-11-28T21:02:50.092Z,5.80
2018-11-28T21:05:19.235Z,5.80
2018-11-28T21:07:48.079Z,5.80
2018-11-28T21:10:22.199Z,5.80
2018-11-28T21:12:51.246Z,5.80
2018-11-28T21:15:20.401Z,5.80
2018-11-28T21:17:48.875Z,5.80
2018-11-28T21:20:18.411Z,5.80
2018-11-28T21:22:48.184Z,5.80
2018-11-28T21:25:16.549Z,5.80
2018-11-28T21:27:45.013Z,5.80
2018-11-28T21:30:16.155Z,5.80
2018-11-28T21:32:44.641Z,5.80
2018-11-28T21:35:15.061Z,5.80
2018-11-28T21:37:43.435Z,5.80
2018-11-28T21:40:12.244Z,5.80
2018-11-28T21:42:40.704Z,5.80
2018-11-28T21:45:14.096Z,5.80
2018-11-28T21:47:42.563Z,5.80
2018-11-28T21:50:12.303Z,5.80
2018-11-28T21:52:40.690Z,5.80
2018-11-28T21:55:18.761Z,5.80
2018-11-28T21:57:47.147Z,5.80
2018-11-28T22:00:18.185Z,5.80
2018-11-28T22:02:46.524Z,5.80
2018-11-28T22:05:15.724Z,5.80
2018-11-28T22:07:44.073Z,5.80
2018-11-28T22:10:20.297Z,5.80
2018-11-28T22:12:48.645Z,5.80
2018-11-28T22:15:17.925Z,5.80
2018-11-28T22:17:52.089Z,5.80
2018-11-28T22:20:20.474Z,5.80
2018-11-28T22:22:48.853Z,5.80
2018-11-28T22:25:20.950Z,5.80
2018-11-28T22:27:49.299Z,5.80
2018-11-28T22:30:18.715Z,5.80
2018-11-28T22:32:47.070Z,5.80
2018-11-28T22:35:15.395Z,5.80
2018-11-28T22:37:43.748Z,5.80
2018-11-28T22:40:14.270Z,5.80
2018-11-28T22:42:42.643Z,5.80
2018-11-28T22:45:15.450Z,5.80
2018-11-28T22:47:43.768Z,5.80
2018-11-28T22:50:13.042Z,5.80
2018-11-28T22:52:41.400Z,5.80
2018-11-28T22:55:11.831Z,5.80
2018-11-28T22:57:40.199Z,5.80
2018-11-28T23:00:31.486Z,5.80
2018-11-28T23:03:10.376Z,5.80
2018-11-28T23:05:44.641Z,5.80
2018-11-28T23:08:14.189Z,5.80
2018-11-28T23:10:42.680Z,5.80
2018-11-28T23:13:12.225Z,5.80
2018-11-28T23:15:40.569Z,5.80
2018-11-28T23:18:09.895Z,5.80
2018-11-28T23:20:38.306Z,5.80
2018-11-28T23:23:07.715Z,5.90
2018-11-28T23:25:36.279Z,5.80
2018-11-28T23:28:04.663Z,5.80
2018-11-28T23:30:33.006Z,5.90
2018-11-28T23:33:01.451Z,5.90
2018-11-28T23:35:31.125Z,5.90
2018-11-28T23:37:59.436Z,5.90
2018-11-28T23:40:27.838Z,5.90
2018-11-28T23:42:56.537Z,5.90
2018-11-28T23:45:25.655Z,5.90
2018-11-28T23:47:54.045Z,5.90
2018-11-28T23:50:25.062Z,5.90
2018-11-28T23:52:54.283Z,5.90
2018-11-28T23:55:24.480Z,5.90
2018-11-28T23:57:53.051Z,5.90
